Sunday, December 15, 2019, 9:05 AM GMT
Back to Local

CWIT, Saint Clothilde Automated Reporting Station

Location: , , Canada Lat: 45.167
Local Time: 9:05 AM GMT ( 9:05 GMT) Lon: -73.683
Time Zone: GMT Elev: 170 ft

Show me the last for .
Show Coded

Time T Td Feel RH Dir Speed Gust Alt SLP Vis Weather Sky Remarks
2019-12-15 08:00 33 31 21 93 260° 14 24 - 29.08 0 Peak wind: 31 mph (27 kts) from 260° at 20 min
1-hr Precip Total: 0.02"
2019-12-15 07:00 34 32 21 89 250° 15 28 - 29.03 0 Peak wind: 33 mph (29 kts) from 260° at 29 min
2019-12-15 06:00 33 32 20 95 240° 13 26 - 29.00 0 Peak wind: 26 mph (23 kts) from 270° at 57 min
2019-12-15 05:00 35 32 25 87 240° 12 20 - 28.98 0 Peak wind: 28 mph (25 kts) from 230° at 11 min
2019-12-15 04:00 37 34 26 88 250° 14 26 - 28.97 0 Peak wind: 26 mph (23 kts) from 240° at 57 min
2019-12-15 03:00 37 36 31 95 260° 8 - - 28.95 0 None
2019-12-15 02:00 37 36 34 98 250° 3 - - 28.93 0 1-hr Precip Total: 0.03"
2019-12-15 01:00 37 37 34 98 260° 3 - - 28.94 0 1-hr Precip Total: 0.23"
2019-12-15 00:00 37 37 34 99 30° 3 - - 28.96 0 Pressure falling rapidly
1-hr Precip Total: 0.09"
2019-12-14 23:00 37 37 35 98 20° 3 - - 29.05 0 1-hr Precip Total: 0.02"
2019-12-14 22:00 38 37 35 98 10° 3 - - 29.10 0 None
2019-12-14 21:00 38 38 35 97 40° 5 - - 29.14 0 Pressure falling rapidly
2019-12-14 20:00 40 39 38 96 70° 3 - - 29.21 0 None
2019-12-14 19:00 40 39 35 95 40° 8 - - 29.24 0 Pressure falling rapidly
2019-12-14 18:00 41 38 37 89 50° 7 - - 29.32 0 None
2019-12-14 17:00 42 38 36 88 40° 8 - - 29.37 0 Pressure falling rapidly
2019-12-14 16:00 40 39 35 95 60° 8 - - 29.45 0 Pressure falling rapidly
2019-12-14 15:00 39 39 34 97 50° 7 - - 29.54 0 1-hr Precip Total: 0.01"
2019-12-14 14:00 38 38 33 97 50° 8 - - 29.59 0 Pressure falling rapidly
2019-12-14 13:00 38 38 33 98 50° 7 - - 29.65 0 None
2019-12-14 12:00 38 37 33 98 60° 6 - - 29.70 0 1-hr Precip Total: 0.03"
2019-12-14 11:00 37 36 31 98 70° 7 - - 29.75 0 1-hr Precip Total: 0.01"
2019-12-14 10:00 38 37 33 97 100° 7 - - 29.80 0 1-hr Precip Total: 0.04"

Support USWX by starting your Amazon purchase here.